sensor_id;sensor_type;location;lat;lon;timestamp;pressure;altitude;pressure_sealevel;temperature;humidity
12182;BME280;6154;51.550;12.138;2023-04-01T00:00:12;98680.63;;;16.06;59.34
12182;BME280;6154;51.550;12.138;2023-04-01T00:02:46;98675.59;;;16.03;59.27
12182;BME280;6154;51.550;12.138;2023-04-01T00:05:17;98668.56;;;16.02;59.25
12182;BME280;6154;51.550;12.138;2023-04-01T00:07:48;98675.59;;;16.03;59.23
12182;BME280;6154;51.550;12.138;2023-04-01T00:10:20;98671.41;;;16.01;59.41
12182;BME280;6154;51.550;12.138;2023-04-01T00:12:51;98669.75;;;16.00;59.56
12182;BME280;6154;51.550;12.138;2023-04-01T00:15:21;98661.75;;;16.00;59.36
12182;BME280;6154;51.550;12.138;2023-04-01T00:17:54;98663.56;;;15.99;59.48
12182;BME280;6154;51.550;12.138;2023-04-01T00:20:25;98665.25;;;16.00;59.11
12182;BME280;6154;51.550;12.138;2023-04-01T00:22:58;98664.56;;;15.98;59.60
12182;BME280;6154;51.550;12.138;2023-04-01T00:25:30;98668.25;;;15.97;59.37
12182;BME280;6154;51.550;12.138;2023-04-01T00:28:01;98672.91;;;15.95;59.52
12182;BME280;6154;51.550;12.138;2023-04-01T00:30:31;98664.91;;;15.95;59.56
12182;BME280;6154;51.550;12.138;2023-04-01T00:33:02;98668.56;;;15.94;59.64
12182;BME280;6154;51.550;12.138;2023-04-01T00:35:33;98671.53;;;15.91;59.90
12182;BME280;6154;51.550;12.138;2023-04-01T00:38:04;98675.87;;;15.92;59.86
12182;BME280;6154;51.550;12.138;2023-04-01T00:40:39;98673.22;;;15.92;59.65
12182;BME280;6154;51.550;12.138;2023-04-01T00:43:17;98666.53;;;15.88;60.34
12182;BME280;6154;51.550;12.138;2023-04-01T00:45:50;98664.88;;;15.87;59.92
12182;BME280;6154;51.550;12.138;2023-04-01T00:48:25;98663.22;;;15.86;59.89
12182;BME280;6154;51.550;12.138;2023-04-01T00:51:01;98667.37;;;15.89;59.46
12182;BME280;6154;51.550;12.138;2023-04-01T00:53:36;98664.88;;;15.87;59.83
12182;BME280;6154;51.550;12.138;2023-04-01T00:56:11;98664.53;;;15.90;59.37
12182;BME280;6154;51.550;12.138;2023-04-01T00:58:46;98669.03;;;15.90;59.70
12182;BME280;6154;51.550;12.138;2023-04-01T01:01:19;98668.22;;;15.89;59.50
12182;BME280;6154;51.550;12.138;2023-04-01T01:03:56;98662.88;;;15.89;59.74
12182;BME280;6154;51.550;12.138;2023-04-01T01:06:38;98664.53;;;15.90;59.59
12182;BME280;6154;51.550;12.138;2023-04-01T01:09:23;98669.88;;;15.90;60.34
12182;BME280;6154;51.550;12.138;2023-04-01T01:12:02;98669.72;;;15.92;59.63
12182;BME280;6154;51.550;12.138;2023-04-01T01:14:53;98672.38;;;15.92;60.27
12182;BME280;6154;51.550;12.138;2023-04-01T01:17:33;98668.22;;;15.89;60.94
12182;BME280;6154;51.550;12.138;2023-04-01T01:20:19;98669.03;;;15.90;60.14
12182;BME280;6154;51.550;12.138;2023-04-01T01:23:15;98666.87;;;15.93;60.01
12182;BME280;6154;51.550;12.138;2023-04-01T01:25:59;98663.53;;;15.91;60.33
12182;BME280;6154;51.550;12.138;2023-04-01T01:28:44;98668.53;;;15.86;60.36
12182;BME280;6154;51.550;12.138;2023-04-01T01:31:19;98654.19;;;15.87;59.96
12182;BME280;6154;51.550;12.138;2023-04-01T01:33:58;98651.69;;;15.86;59.79
12182;BME280;6154;51.550;12.138;2023-04-01T01:36:33;98654.19;;;15.87;59.83
12182;BME280;6154;51.550;12.138;2023-04-01T01:39:04;98658.19;;;15.83;59.93
12182;BME280;6154;51.550;12.138;2023-04-01T01:41:35;98656.00;;;15.78;59.77
12182;BME280;6154;51.550;12.138;2023-04-01T01:44:06;98664.16;;;15.77;60.11
12182;BME280;6154;51.550;12.138;2023-04-01T01:46:38;98650.16;;;15.75;60.03
12182;BME280;6154;51.550;12.138;2023-04-01T01:49:07;98653.00;;;15.73;60.24
12182;BME280;6154;51.550;12.138;2023-04-01T01:51:39;98662.81;;;15.73;60.30
12182;BME280;6154;51.550;12.138;2023-04-01T01:54:12;98650.63;;;15.70;60.04
12182;BME280;6154;51.550;12.138;2023-04-01T01:56:43;98652.13;;;15.73;60.09
12182;BME280;6154;51.550;12.138;2023-04-01T01:59:14;98657.00;;;15.77;59.64
12182;BME280;6154;51.550;12.138;2023-04-01T02:01:48;98654.66;;;15.74;60.05
12182;BME280;6154;51.550;12.138;2023-04-01T02:04:18;98658.69;;;15.78;59.89
12182;BME280;6154;51.550;12.138;2023-04-01T02:06:53;98670.00;;;15.80;59.85
12182;BME280;6154;51.550;12.138;2023-04-01T02:09:24;98666.03;;;15.85;59.74
12182;BME280;6154;51.550;12.138;2023-04-01T02:11:56;98657.22;;;15.84;59.44
12182;BME280;6154;51.550;12.138;2023-04-01T02:14:28;98664.38;;;15.84;59.59
12182;BME280;6154;51.550;12.138;2023-04-01T02:17:04;98659.72;;;15.86;59.37
12182;BME280;6154;51.550;12.138;2023-04-01T02:19:38;98660.37;;;15.88;59.48
12182;BME280;6154;51.550;12.138;2023-04-01T02:22:12;98666.53;;;15.88;59.30
12182;BME280;6154;51.550;12.138;2023-04-01T02:24:43;98665.72;;;15.88;59.44
12182;BME280;6154;51.550;12.138;2023-04-01T02:27:12;98659.53;;;15.87;59.38
12182;BME280;6154;51.550;12.138;2023-04-01T02:29:40;98663.03;;;15.88;59.43
12182;BME280;6154;51.550;12.138;2023-04-01T02:32:09;98665.53;;;15.89;59.34
12182;BME280;6154;51.550;12.138;2023-04-01T02:34:38;98662.22;;;15.87;59.38
12182;BME280;6154;51.550;12.138;2023-04-01T02:37:08;98667.37;;;15.89;59.13
12182;BME280;6154;51.550;12.138;2023-04-01T02:39:37;98668.53;;;15.86;59.15
12182;BME280;6154;51.550;12.138;2023-04-01T02:42:05;98667.53;;;15.87;59.37
12182;BME280;6154;51.550;12.138;2023-04-01T02:44:34;98668.53;;;15.86;59.31
12182;BME280;6154;51.550;12.138;2023-04-01T02:47:03;98675.87;;;15.84;59.62
12182;BME280;6154;51.550;12.138;2023-04-01T02:49:31;98672.22;;;15.85;59.40
12182;BME280;6154;51.550;12.138;2023-04-01T02:51:59;98674.87;;;15.85;59.39
12182;BME280;6154;51.550;12.138;2023-04-01T02:54:29;98679.50;;;15.83;59.73
12182;BME280;6154;51.550;12.138;2023-04-01T02:56:57;98680.50;;;15.82;59.63
12182;BME280;6154;51.550;12.138;2023-04-01T02:59:25;98683.19;;;15.82;59.58
12182;BME280;6154;51.550;12.138;2023-04-01T03:01:53;98683.19;;;15.82;59.53
12182;BME280;6154;51.550;12.138;2023-04-01T03:04:21;98685.19;;;15.80;59.55
12182;BME280;6154;51.550;12.138;2023-04-01T03:06:49;98685.19;;;15.80;59.64
12182;BME280;6154;51.550;12.138;2023-04-01T03:09:18;98691.69;;;15.77;59.84
12182;BME280;6154;51.550;12.138;2023-04-01T03:11:47;98685.50;;;15.77;59.66
12182;BME280;6154;51.550;12.138;2023-04-01T03:14:16;98691.84;;;15.76;59.86
12182;BME280;6154;51.550;12.138;2023-04-01T03:16:44;98693.97;;;15.72;60.10
12182;BME280;6154;51.550;12.138;2023-04-01T03:19:12;98687.81;;;15.72;60.01
12182;BME280;6154;51.550;12.138;2023-04-01T03:21:41;98693.00;;;15.73;60.04
12182;BME280;6154;51.550;12.138;2023-04-01T03:24:09;98685.84;;;15.74;60.06
12182;BME280;6154;51.550;12.138;2023-04-01T03:26:37;98689.47;;;15.73;59.95
12182;BME280;6154;51.550;12.138;2023-04-01T03:29:07;98690.13;;;15.67;60.14
12182;BME280;6154;51.550;12.138;2023-04-01T03:31:35;98689.81;;;15.70;60.20
12182;BME280;6154;51.550;12.138;2023-04-01T03:34:03;98692.47;;;15.70;60.19
12182;BME280;6154;51.550;12.138;2023-04-01T03:36:32;98688.97;;;15.69;60.44
12182;BME280;6154;51.550;12.138;2023-04-01T03:39:00;98690.13;;;15.67;60.30
12182;BME280;6154;51.550;12.138;2023-04-01T03:41:30;98687.31;;;15.68;60.29
12182;BME280;6154;51.550;12.138;2023-04-01T03:43:59;98686.47;;;15.68;60.23
12182;BME280;6154;51.550;12.138;2023-04-01T03:46:28;98691.97;;;15.66;60.42
12182;BME280;6154;51.550;12.138;2023-04-01T03:48:57;98689.75;;;15.62;60.78
12182;BME280;6154;51.550;12.138;2023-04-01T03:51:25;98685.25;;;15.62;60.53
12182;BME280;6154;51.550;12.138;2023-04-01T03:53:54;98698.13;;;15.67;60.58
12182;BME280;6154;51.550;12.138;2023-04-01T03:56:22;98693.62;;;15.67;60.14
12182;BME280;6154;51.550;12.138;2023-04-01T03:58:50;98690.81;;;15.69;60.30
12182;BME280;6154;51.550;12.138;2023-04-01T04:01:20;98692.81;;;15.67;60.06
12182;BME280;6154;51.550;12.138;2023-04-01T04:03:50;98700.16;;;15.73;59.86
12182;BME280;6154;51.550;12.138;2023-04-01T04:06:20;98705.47;;;15.73;60.01
12182;BME280;6154;51.550;12.138;2023-04-01T04:08:50;98695.81;;;15.72;60.02
12182;BME280;6154;51.550;12.138;2023-04-01T04:11:19;98701.00;;;15.73;59.81
12182;BME280;6154;51.550;12.138;2023-04-01T04:13:48;98705.47;;;15.73;59.97
12182;BME280;6154;51.550;12.138;2023-04-01T04:16:17;98704.13;;;15.69;60.16
12182;BME280;6154;51.550;12.138;2023-04-01T04:18:45;98702.47;;;15.68;60.40
12182;BME280;6154;51.550;12.138;2023-04-01T04:21:15;98712.63;;;15.64;60.70
12182;BME280;6154;51.550;12.138;2023-04-01T04:23:44;98711.81;;;15.64;60.63
12182;BME280;6154;51.550;12.138;2023-04-01T04:26:14;98707.72;;;15.60;60.94
12182;BME280;6154;51.550;12.138;2023-04-01T04:28:44;98706.22;;;15.57;60.72
12182;BME280;6154;51.550;12.138;2023-04-01T04:31:18;98712.37;;;15.58;60.69
12182;BME280;6154;51.550;12.138;2023-04-01T04:33:46;98719.87;;;15.54;61.35
12182;BME280;6154;51.550;12.138;2023-04-01T04:36:16;98726.06;;;15.55;60.89
12182;BME280;6154;51.550;12.138;2023-04-01T04:38:45;98730.69;;;15.52;60.88
12182;BME280;6154;51.550;12.138;2023-04-01T04:41:14;98728.34;;;15.49;60.89
12182;BME280;6154;51.550;12.138;2023-04-01T04:43:50;98724.31;;;15.45;61.03
12182;BME280;6154;51.550;12.138;2023-04-01T04:46:18;98729.66;;;15.45;61.16
12182;BME280;6154;51.550;12.138;2023-04-01T04:48:48;98732.47;;;15.44;61.29
12182;BME280;6154;51.550;12.138;2023-04-01T04:51:19;98732.16;;;15.47;61.18
12182;BME280;6154;51.550;12.138;2023-04-01T04:53:48;98723.66;;;15.43;61.35
12182;BME280;6154;51.550;12.138;2023-04-01T04:56:19;98729.66;;;15.45;61.27
12182;BME280;6154;51.550;12.138;2023-04-01T04:58:48;98728.66;;;15.46;61.21
12182;BME280;6154;51.550;12.138;2023-04-01T05:01:17;98730.50;;;15.46;61.16
12182;BME280;6154;51.550;12.138;2023-04-01T05:03:46;98739.00;;;15.49;61.03
12182;BME280;6154;51.550;12.138;2023-04-01T05:06:15;98731.50;;;15.53;60.83
12182;BME280;6154;51.550;12.138;2023-04-01T05:08:45;98736.72;;;15.55;60.91
12182;BME280;6154;51.550;12.138;2023-04-01T05:11:16;98735.03;;;15.53;60.88
12182;BME280;6154;51.550;12.138;2023-04-01T05:13:44;98738.22;;;15.57;60.70
12182;BME280;6154;51.550;12.138;2023-04-01T05:16:15;98733.72;;;15.58;60.79
12182;BME280;6154;51.550;12.138;2023-04-01T05:18:44;98737.06;;;15.60;60.80
12182;BME280;6154;51.550;12.138;2023-04-01T05:21:14;98737.75;;;15.62;60.79
12182;BME280;6154;51.550;12.138;2023-04-01T05:23:44;98742.81;;;15.65;60.72
12182;BME280;6154;51.550;12.138;2023-04-01T05:26:14;98745.31;;;15.66;60.84
12182;BME280;6154;51.550;12.138;2023-04-01T05:28:42;98747.66;;;15.69;60.80
12182;BME280;6154;51.550;12.138;2023-04-01T05:31:10;98747.19;;;15.74;60.59
12182;BME280;6154;51.550;12.138;2023-04-01T05:33:39;98745.19;;;15.76;60.55
12182;BME280;6154;51.550;12.138;2023-04-01T05:36:08;98752.53;;;15.82;60.67
12182;BME280;6154;51.550;12.138;2023-04-01T05:38:37;98748.88;;;15.83;60.82
12182;BME280;6154;51.550;12.138;2023-04-01T05:41:07;98747.25;;;15.90;60.69
12182;BME280;6154;51.550;12.138;2023-04-01T05:43:36;98748.44;;;15.96;60.58
12182;BME280;6154;51.550;12.138;2023-04-01T05:46:07;98748.97;;;15.99;60.67
12182;BME280;6154;51.550;12.138;2023-04-01T05:48:35;98750.31;;;16.03;60.51
12182;BME280;6154;51.550;12.138;2023-04-01T05:51:04;98754.50;;;16.06;60.60
12182;BME280;6154;51.550;12.138;2023-04-01T05:53:32;98754.16;;;16.09;60.59
12182;BME280;6154;51.550;12.138;2023-04-01T05:56:04;98755.00;;;16.09;60.39
12182;BME280;6154;51.550;12.138;2023-04-01T05:58:36;98747.00;;;16.09;60.78
12182;BME280;6154;51.550;12.138;2023-04-01T06:01:06;98753.84;;;16.12;60.54
12182;BME280;6154;51.550;12.138;2023-04-01T06:03:41;98762.88;;;16.19;60.49
12182;BME280;6154;51.550;12.138;2023-04-01T06:06:13;98765.91;;;16.24;60.22
12182;BME280;6154;51.550;12.138;2023-04-01T06:08:43;98761.25;;;16.26;60.53
12182;BME280;6154;51.550;12.138;2023-04-01T06:11:24;98763.12;;;16.34;60.12
12182;BME280;6154;51.550;12.138;2023-04-01T06:14:07;98764.13;;;16.41;60.28
12182;BME280;6154;51.550;12.138;2023-04-01T06:16:50;98760.13;;;16.45;60.56
12182;BME280;6154;51.550;12.138;2023-04-01T06:19:31;98766.16;;;16.47;60.22
12182;BME280;6154;51.550;12.138;2023-04-01T06:22:16;98768.16;;;16.53;60.34
12182;BME280;6154;51.550;12.138;2023-04-01T06:24:59;98770.16;;;16.59;60.47
12182;BME280;6154;51.550;12.138;2023-04-01T06:27:43;98770.19;;;16.67;60.38
12182;BME280;6154;51.550;12.138;2023-04-01T06:30:44;98768.25;;;16.78;60.31
12182;BME280;6154;51.550;12.138;2023-04-01T06:33:49;98774.44;;;16.86;60.18
12182;BME280;6154;51.550;12.138;2023-04-01T06:36:41;98775.75;;;16.90;59.93
12182;BME280;6154;51.550;12.138;2023-04-01T06:39:27;98778.09;;;17.02;60.21
12182;BME280;6154;51.550;12.138;2023-04-01T06:42:10;98778.62;;;17.05;59.13
12182;BME280;6154;51.550;12.138;2023-04-01T06:44:49;98781.63;;;17.10;59.19
12182;BME280;6154;51.550;12.138;2023-04-01T06:47:42;98781.81;;;17.25;59.63
12182;BME280;6154;51.550;12.138;2023-04-01T06:50:23;98772.44;;;17.29;59.36
12182;BME280;6154;51.550;12.138;2023-04-01T06:53:01;98782.28;;;17.37;59.54
12182;BME280;6154;51.550;12.138;2023-04-01T06:55:48;98783.28;;;17.44;59.58
12182;BME280;6154;51.550;12.138;2023-04-01T06:58:24;98782.59;;;17.50;59.30
12182;BME280;6154;51.550;12.138;2023-04-01T07:00:56;98785.28;;;17.58;59.51
12182;BME280;6154;51.550;12.138;2023-04-01T07:03:30;98787.78;;;17.60;59.32
12182;BME280;6154;51.550;12.138;2023-04-01T07:06:03;98783.09;;;17.70;59.14
12182;BME280;6154;51.550;12.138;2023-04-01T07:08:36;98788.75;;;17.83;59.34
12182;BME280;6154;51.550;12.138;2023-04-01T07:11:06;98789.44;;;17.85;59.05
12182;BME280;6154;51.550;12.138;2023-04-01T07:14:00;98788.91;;;17.90;58.65
12182;BME280;6154;51.550;12.138;2023-04-01T07:16:31;98790.09;;;17.87;58.37
12182;BME280;6154;51.550;12.138;2023-04-01T07:19:06;98795.44;;;17.95;58.43
12182;BME280;6154;51.550;12.138;2023-04-01T07:21:41;98796.09;;;17.97;58.33
12182;BME280;6154;51.550;12.138;2023-04-01T07:24:16;98795.06;;;18.06;58.35
12182;BME280;6154;51.550;12.138;2023-04-01T07:26:45;98797.28;;;17.95;58.16
12182;BME280;6154;51.550;12.138;2023-04-01T07:29:15;98793.19;;;18.15;58.25
12182;BME280;6154;51.550;12.138;2023-04-01T07:35:03;98799.34;;;18.24;56.83
12182;BME280;6154;51.550;12.138;2023-04-01T07:37:40;98807.72;;;18.21;57.60
12182;BME280;6154;51.550;12.138;2023-04-01T07:40:21;98801.31;;;18.30;57.47
12182;BME280;6154;51.550;12.138;2023-04-01T07:43:20;98807.03;;;18.27;57.03
12182;BME280;6154;51.550;12.138;2023-04-01T07:45:55;98807.13;;;18.42;56.38
12182;BME280;6154;51.550;12.138;2023-04-01T07:48:30;98812.34;;;18.35;57.60
12182;BME280;6154;51.550;12.138;2023-04-01T07:51:08;98815.19;;;18.33;57.17
12182;BME280;6154;51.550;12.138;2023-04-01T07:53:45;98812.63;;;18.48;56.75
12182;BME280;6154;51.550;12.138;2023-04-01T07:56:20;98818.00;;;18.40;56.68
12182;BME280;6154;51.550;12.138;2023-04-01T07:58:58;98812.81;;;18.47;56.85
12182;BME280;6154;51.550;12.138;2023-04-01T08:01:40;98821.28;;;18.66;56.78
12182;BME280;6154;51.550;12.138;2023-04-01T08:04:25;98823.41;;;18.71;56.42
12182;BME280;6154;51.550;12.138;2023-04-01T08:07:02;98824.56;;;18.77;56.42
12182;BME280;6154;51.550;12.138;2023-04-01T08:09:43;98829.50;;;18.57;56.28
12182;BME280;6154;51.550;12.138;2023-04-01T08:12:24;98827.50;;;18.51;55.83
12182;BME280;6154;51.550;12.138;2023-04-01T08:15:06;98829.78;;;18.70;56.41
12182;BME280;6154;51.550;12.138;2023-04-01T08:17:52;98836.31;;;18.76;56.60
12182;BME280;6154;51.550;12.138;2023-04-01T08:20:28;98831.81;;;18.60;55.52
12182;BME280;6154;51.550;12.138;2023-04-01T08:23:04;98845.78;;;18.86;56.33
12182;BME280;6154;51.550;12.138;2023-04-01T08:25:37;98840.44;;;18.86;55.66
12182;BME280;6154;51.550;12.138;2023-04-01T08:28:13;98847.88;;;18.99;56.26
12182;BME280;6154;51.550;12.138;2023-04-01T08:30:48;98851.53;;;19.06;56.03
12182;BME280;6154;51.550;12.138;2023-04-01T08:33:27;98853.47;;;19.12;55.88
12182;BME280;6154;51.550;12.138;2023-04-01T08:36:00;98847.69;;;19.23;56.32
12182;BME280;6154;51.550;12.138;2023-04-01T08:38:33;98851.16;;;19.32;56.14
12182;BME280;6154;51.550;12.138;2023-04-01T08:41:27;98845.81;;;19.55;56.23
12182;BME280;6154;51.550;12.138;2023-04-01T08:44:24;98851.28;;;19.62;54.29
12182;BME280;6154;51.550;12.138;2023-04-01T08:47:31;98846.50;;;19.72;54.65
12182;BME280;6154;51.550;12.138;2023-04-01T08:50:26;98852.19;;;19.77;53.66
12182;BME280;6154;51.550;12.138;2023-04-01T08:53:00;98857.87;;;19.74;53.49
12182;BME280;6154;51.550;12.138;2023-04-01T08:55:38;98852.66;;;19.95;55.02
12182;BME280;6154;51.550;12.138;2023-04-01T09:01:57;98850.44;;;20.14;53.29
12182;BME280;6154;51.550;12.138;2023-04-01T09:04:47;98854.44;;;20.18;53.84
12182;BME280;6154;51.550;12.138;2023-04-01T09:07:32;98848.22;;;20.32;54.80
12182;BME280;6154;51.550;12.138;2023-04-01T09:10:21;98849.63;;;20.43;55.05
12182;BME280;6154;51.550;12.138;2023-04-01T09:13:05;98846.09;;;20.42;54.17
12182;BME280;6154;51.550;12.138;2023-04-01T09:16:03;98851.31;;;20.44;54.52
12182;BME280;6154;51.550;12.138;2023-04-01T09:19:04;98848.53;;;20.52;52.95
12182;BME280;6154;51.550;12.138;2023-04-01T09:28:10;98848.41;;;20.75;53.63
12182;BME280;6154;51.550;12.138;2023-04-01T09:31:00;98846.72;;;20.74;53.29
12182;BME280;6154;51.550;12.138;2023-04-01T09:34:20;98851.13;;;20.96;53.37
12182;BME280;6154;51.550;12.138;2023-04-01T09:37:02;98859.41;;;20.94;52.08
12182;BME280;6154;51.550;12.138;2023-04-01T09:39:37;98859.53;;;21.08;53.92
12182;BME280;6154;51.550;12.138;2023-04-01T09:42:23;98856.66;;;21.09;54.87
12182;BME280;6154;51.550;12.138;2023-04-01T09:45:01;98860.63;;;21.13;53.39
12182;BME280;6154;51.550;12.138;2023-04-01T09:47:54;98860.88;;;21.18;54.35
12182;BME280;6154;51.550;12.138;2023-04-01T09:50:36;98863.00;;;21.23;52.55
12182;BME280;6154;51.550;12.138;2023-04-01T09:53:18;98860.25;;;21.16;53.88
12182;BME280;6154;51.550;12.138;2023-04-01T09:59:22;98868.16;;;21.03;52.69
12182;BME280;6154;51.550;12.138;2023-04-01T10:06:12;98863.91;;;20.94;53.00
12182;BME280;6154;51.550;12.138;2023-04-01T10:09:11;98860.22;;;20.95;52.47
12182;BME280;6154;51.550;12.138;2023-04-01T10:15:25;98871.03;;;20.65;52.17
12182;BME280;6154;51.550;12.138;2023-04-01T10:18:14;98871.78;;;20.59;52.43
12182;BME280;6154;51.550;12.138;2023-04-01T10:20:57;98873.81;;;20.28;50.87
12182;BME280;6154;51.550;12.138;2023-04-01T10:23:48;98874.53;;;20.22;52.71
12182;BME280;6154;51.550;12.138;2023-04-01T10:26:34;98872.16;;;20.27;51.66
12182;BME280;6154;51.550;12.138;2023-04-01T10:32:37;98875.84;;;20.41;52.17
12182;BME280;6154;51.550;12.138;2023-04-01T10:39:03;98872.78;;;20.29;50.01
12182;BME280;6154;51.550;12.138;2023-04-01T10:48:36;98882.03;;;20.41;51.30
12182;BME280;6154;51.550;12.138;2023-04-01T10:51:25;98876.22;;;20.52;51.26
12182;BME280;6154;51.550;12.138;2023-04-01T10:54:30;98880.87;;;20.58;52.47
12182;BME280;6154;51.550;12.138;2023-04-01T10:57:15;98875.66;;;20.72;51.85
12182;BME280;6154;51.550;12.138;2023-04-01T11:03:46;98870.09;;;21.09;51.68
12182;BME280;6154;51.550;12.138;2023-04-01T11:13:29;98861.75;;;21.40;49.52
12182;BME280;6154;51.550;12.138;2023-04-01T11:19:38;98881.66;;;20.74;49.95
12182;BME280;6154;51.550;12.138;2023-04-01T11:25:55;98888.37;;;20.63;50.25
12182;BME280;6154;51.550;12.138;2023-04-01T11:31:50;98879.16;;;20.87;49.99
12182;BME280;6154;51.550;12.138;2023-04-01T11:34:36;98887.25;;;20.43;48.82
12182;BME280;6154;51.550;12.138;2023-04-01T11:37:21;98889.78;;;20.59;50.72
12182;BME280;6154;51.550;12.138;2023-04-01T11:40:02;98895.75;;;20.31;50.63
12182;BME280;6154;51.550;12.138;2023-04-01T11:42:42;98889.41;;;20.47;52.24
12182;BME280;6154;51.550;12.138;2023-04-01T11:45:32;98893.81;;;20.40;52.28
12182;BME280;6154;51.550;12.138;2023-04-01T11:48:14;98895.84;;;20.38;51.97
12182;BME280;6154;51.550;12.138;2023-04-01T11:50:59;98894.31;;;20.44;51.89
12182;BME280;6154;51.550;12.138;2023-04-01T11:53:43;98897.16;;;20.42;51.72
12182;BME280;6154;51.550;12.138;2023-04-01T11:56:22;98898.16;;;20.41;51.88
12182;BME280;6154;51.550;12.138;2023-04-01T11:59:22;98902.25;;;20.37;52.26
12182;BME280;6154;51.550;12.138;2023-04-01T12:01:59;98904.66;;;20.32;51.64
12182;BME280;6154;51.550;12.138;2023-04-01T12:04:52;98901.69;;;20.27;52.33
12182;BME280;6154;51.550;12.138;2023-04-01T12:07:40;98911.87;;;20.31;51.54
12182;BME280;6154;51.550;12.138;2023-04-01T12:10:18;98906.50;;;20.31;52.00
12182;BME280;6154;51.550;12.138;2023-04-01T12:12:52;98904.94;;;20.37;52.42
12182;BME280;6154;51.550;12.138;2023-04-01T12:15:35;98911.16;;;20.37;52.24
12182;BME280;6154;51.550;12.138;2023-04-01T12:18:17;98914.03;;;20.36;52.21
12182;BME280;6154;51.550;12.138;2023-04-01T12:20:53;98915.22;;;20.33;51.96
12182;BME280;6154;51.550;12.138;2023-04-01T12:23:52;98920.69;;;20.25;52.67
12182;BME280;6154;51.550;12.138;2023-04-01T12:26:42;98921.34;;;20.27;51.54
12182;BME280;6154;51.550;12.138;2023-04-01T12:29:26;98917.44;;;20.15;51.75
12182;BME280;6154;51.550;12.138;2023-04-01T12:32:10;98917.84;;;20.04;52.02
12182;BME280;6154;51.550;12.138;2023-04-01T12:35:04;98920.91;;;20.01;52.53
12182;BME280;6154;51.550;12.138;2023-04-01T12:37:45;98925.56;;;20.22;52.08
12182;BME280;6154;51.550;12.138;2023-04-01T12:43:28;98920.25;;;20.51;51.75
12182;BME280;6154;51.550;12.138;2023-04-01T12:46:07;98925.06;;;20.71;51.31
12182;BME280;6154;51.550;12.138;2023-04-01T12:49:04;98931.69;;;21.04;52.16
12182;BME280;6154;51.550;12.138;2023-04-01T12:51:55;98925.66;;;21.17;50.22
12182;BME280;6154;51.550;12.138;2023-04-01T12:54:54;98931.94;;;21.39;50.22
12182;BME280;6154;51.550;12.138;2023-04-01T12:57:44;98938.28;;;21.52;50.22
12182;BME280;6154;51.550;12.138;2023-04-01T13:00:28;98932.47;;;21.49;49.83
12182;BME280;6154;51.550;12.138;2023-04-01T13:03:13;98927.31;;;21.33;50.24
12182;BME280;6154;51.550;12.138;2023-04-01T13:06:06;98929.31;;;21.67;50.66
12182;BME280;6154;51.550;12.138;2023-04-01T13:08:43;98937.78;;;21.64;49.04
12182;BME280;6154;51.550;12.138;2023-04-01T13:11:20;98935.97;;;21.71;50.22
12182;BME280;6154;51.550;12.138;2023-04-01T13:14:20;98941.25;;;21.58;50.26
12182;BME280;6154;51.550;12.138;2023-04-01T13:17:05;98950.78;;;21.60;49.16
12182;BME280;6154;51.550;12.138;2023-04-01T13:19:39;98954.75;;;21.43;50.39
12182;BME280;6154;51.550;12.138;2023-04-01T13:22:41;98950.47;;;21.48;51.56
12182;BME280;6154;51.550;12.138;2023-04-01T13:25:24;98955.56;;;21.43;50.68
12182;BME280;6154;51.550;12.138;2023-04-01T13:28:01;98958.03;;;21.38;50.39
12182;BME280;6154;51.550;12.138;2023-04-01T13:30:38;98962.84;;;21.13;50.67
12182;BME280;6154;51.550;12.138;2023-04-01T13:33:15;98961.84;;;21.14;50.99
12182;BME280;6154;51.550;12.138;2023-04-01T13:35:48;98972.50;;;21.22;50.97
12182;BME280;6154;51.550;12.138;2023-04-01T13:41:50;98968.97;;;21.22;49.98
12182;BME280;6154;51.550;12.138;2023-04-01T13:44:32;98970.63;;;21.23;50.17
12182;BME280;6154;51.550;12.138;2023-04-01T13:47:17;98974.38;;;21.07;50.98
12182;BME280;6154;51.550;12.138;2023-04-01T13:53:20;98976.72;;;20.95;49.35
12182;BME280;6154;51.550;12.138;2023-04-01T13:55:55;98983.41;;;20.85;50.66
12182;BME280;6154;51.550;12.138;2023-04-01T13:58:43;98984.16;;;20.79;51.27
12182;BME280;6154;51.550;12.138;2023-04-01T14:01:23;98984.50;;;20.61;50.30
12182;BME280;6154;51.550;12.138;2023-04-01T14:07:08;98988.66;;;20.11;50.46
12182;BME280;6154;51.550;12.138;2023-04-01T14:09:50;98994.31;;;20.16;52.12
12182;BME280;6154;51.550;12.138;2023-04-01T14:12:29;98991.62;;;20.16;52.01
12182;BME280;6154;51.550;12.138;2023-04-01T14:15:18;98997.28;;;20.21;52.06
12182;BME280;6154;51.550;12.138;2023-04-01T14:18:06;98995.09;;;20.25;51.91
12182;BME280;6154;51.550;12.138;2023-04-01T14:20:40;98993.13;;;20.19;51.36
12182;BME280;6154;51.550;12.138;2023-04-01T14:23:33;98995.09;;;20.25;52.45
12182;BME280;6154;51.550;12.138;2023-04-01T14:26:50;98999.06;;;20.29;51.56
12182;BME280;6154;51.550;12.138;2023-04-01T14:29:28;98999.19;;;20.35;51.11
12182;BME280;6154;51.550;12.138;2023-04-01T14:32:11;98999.53;;;20.32;52.52
12182;BME280;6154;51.550;12.138;2023-04-01T14:34:55;99005.03;;;20.39;52.33
12182;BME280;6154;51.550;12.138;2023-04-01T14:37:43;99005.25;;;20.52;52.18
12182;BME280;6154;51.550;12.138;2023-04-01T14:40:28;99002.28;;;20.47;51.82
12182;BME280;6154;51.550;12.138;2023-04-01T14:43:28;99003.31;;;20.46;51.76
12182;BME280;6154;51.550;12.138;2023-04-01T14:46:17;99008.00;;;20.44;52.43
12182;BME280;6154;51.550;12.138;2023-04-01T14:48:59;99009.03;;;20.43;52.66
12182;BME280;6154;51.550;12.138;2023-04-01T14:51:31;99007.66;;;20.47;52.89
12182;BME280;6154;51.550;12.138;2023-04-01T14:54:08;99008.13;;;20.51;53.07
12182;BME280;6154;51.550;12.138;2023-04-01T14:56:47;99020.09;;;20.48;53.13
12182;BME280;6154;51.550;12.138;2023-04-01T14:59:26;99018.06;;;20.50;53.10
12182;BME280;6154;51.550;12.138;2023-04-01T15:02:01;99022.31;;;20.45;53.18
12182;BME280;6154;51.550;12.138;2023-04-01T15:04:47;99023.81;;;20.47;53.36
12182;BME280;6154;51.550;12.138;2023-04-01T15:07:50;99022.47;;;20.43;53.09